createdAt,value
2023-02-15T00:03:02.904Z,51.7
2023-02-15T00:08:02.852Z,51.7
2023-02-15T00:18:02.829Z,51.7
2023-02-15T00:38:02.873Z,51.7
2023-02-15T00:48:02.831Z,51.5
2023-02-15T00:53:02.834Z,51.4
2023-02-15T00:58:02.874Z,51.3
2023-02-15T01:03:02.851Z,51.3
2023-02-15T01:13:02.841Z,51.3
2023-02-15T01:18:02.872Z,51.3
2023-02-15T01:28:02.848Z,51.2
2023-02-15T01:38:02.990Z,51.2
2023-02-15T01:58:02.888Z,51
2023-02-15T02:03:02.945Z,50.8
2023-02-15T02:08:02.878Z,50.8
2023-02-15T02:18:02.906Z,50.9
2023-02-15T02:28:02.888Z,50.8
2023-02-15T02:33:02.896Z,50.7
2023-02-15T02:38:02.933Z,50.8
2023-02-15T02:48:02.905Z,50.8
2023-02-15T02:58:02.995Z,50.6
2023-02-15T03:18:02.961Z,50.4
2023-02-15T03:23:02.940Z,50.4
2023-02-15T03:33:02.963Z,50.3
2023-02-15T03:38:02.970Z,50.1
2023-02-15T03:48:02.931Z,50.3
2023-02-15T03:53:02.956Z,50.1
2023-02-15T04:03:03.103Z,50.3
2023-02-15T04:08:02.976Z,50.2
2023-02-15T04:13:02.962Z,50.2
2023-02-15T04:38:03.007Z,50
2023-02-15T04:43:02.988Z,50
2023-02-15T04:53:03.026Z,49.8
2023-02-15T05:03:03.052Z,49.8
2023-02-15T05:08:03.056Z,49.9
2023-02-15T05:18:03.043Z,49.6
2023-02-15T05:28:05.160Z,49.7
2023-02-15T05:33:03.046Z,49.7
2023-02-15T05:53:03.086Z,49.7
2023-02-15T06:03:03.105Z,49.5
2023-02-15T06:13:03.065Z,49.3
2023-02-15T06:18:03.053Z,49.4
2023-02-15T06:28:03.060Z,49.4
2023-02-15T06:38:03.063Z,49.5
2023-02-15T06:48:03.035Z,49.2
2023-02-15T06:53:03.157Z,49.3
2023-02-15T07:13:03.083Z,49.3
2023-02-15T07:23:03.057Z,48.9
2023-02-15T07:33:05.302Z,49
2023-02-15T07:38:03.079Z,49.1
2023-02-15T07:43:03.064Z,49.4
2023-02-15T07:48:03.071Z,49.3
2023-02-15T07:58:03.347Z,49.6
2023-02-15T08:08:03.077Z,49.1
2023-02-15T08:18:03.152Z,49
2023-02-15T08:38:03.200Z,49.3
2023-02-15T08:48:03.089Z,49.2
2023-02-15T08:53:03.104Z,49.3
2023-02-15T09:03:03.128Z,49.3
2023-02-15T09:13:03.139Z,49.8
2023-02-15T09:18:03.119Z,49.6
2023-02-15T09:28:03.144Z,50.5
2023-02-15T09:53:03.140Z,50.3
2023-02-15T09:58:03.142Z,50.3
2023-02-15T10:08:03.103Z,50.3
2023-02-15T10:13:03.155Z,50.2
2023-02-15T10:23:03.124Z,50.1
2023-02-15T10:28:03.155Z,50.2
2023-02-15T10:38:03.173Z,50.4
2023-02-15T10:43:03.144Z,50.6
2023-02-15T10:48:03.149Z,50.6
2023-02-15T10:58:03.174Z,50.2
2023-02-15T11:13:03.169Z,50.8
2023-02-15T11:18:03.199Z,51.2
2023-02-15T11:28:03.164Z,50.8
2023-02-15T11:38:03.203Z,51
2023-02-15T11:48:03.200Z,51
2023-02-15T11:58:03.237Z,51.3
2023-02-15T12:08:03.243Z,51.5
2023-02-15T12:33:03.250Z,51.5
2023-02-15T12:48:03.221Z,51.7
2023-02-15T12:58:03.251Z,51.6
2023-02-15T13:03:03.258Z,51.8
2023-02-15T13:13:03.252Z,52.2
2023-02-15T13:23:03.267Z,52.1
2023-02-15T13:28:03.271Z,52.2
2023-02-15T13:53:03.285Z,52.4
2023-02-15T13:58:03.282Z,52
2023-02-15T14:08:03.247Z,53
2023-02-15T14:18:03.294Z,52.5
2023-02-15T14:28:03.265Z,52.2
2023-02-15T14:33:03.256Z,52.1
2023-02-15T14:43:03.263Z,52.1
2023-02-15T14:48:03.294Z,52.3
2023-02-15T15:13:03.303Z,52.6
2023-02-15T15:23:03.260Z,53.2
2023-02-15T15:33:03.288Z,53.1
2023-02-15T15:38:03.283Z,53.1
2023-02-15T15:48:07.370Z,52.9
2023-02-15T15:58:03.326Z,53.2
2023-02-15T16:08:03.301Z,53.1
2023-02-15T16:28:03.309Z,53.3
2023-02-15T16:33:03.270Z,53.3
2023-02-15T16:38:03.295Z,53.2
2023-02-15T16:48:03.363Z,53.2
2023-02-15T16:58:03.277Z,53.2
2023-02-15T17:08:03.321Z,53.2
2023-02-15T17:18:03.302Z,53.2
2023-02-15T17:23:03.317Z,53.4
2023-02-15T17:48:03.383Z,53.4
2023-02-15T17:58:03.325Z,53.3
2023-02-15T18:08:03.385Z,53.3
2023-02-15T18:13:03.361Z,53.4
2023-02-15T18:23:03.326Z,53.4
2023-02-15T18:33:03.403Z,53.5
2023-02-15T18:43:03.336Z,53.3
2023-02-15T18:48:03.340Z,53.4
2023-02-15T19:08:03.411Z,53.3
2023-02-15T19:13:03.359Z,53.3
2023-02-15T19:18:03.369Z,53.2
2023-02-15T19:28:03.464Z,53.1
2023-02-15T19:38:03.366Z,52.8
2023-02-15T19:43:03.357Z,53.1
2023-02-15T19:48:03.390Z,52.8
2023-02-15T19:58:03.371Z,53
2023-02-15T20:08:03.420Z,52.9
2023-02-15T20:28:03.384Z,52.7
2023-02-15T20:33:03.367Z,52.7
2023-02-15T20:43:03.394Z,52.6
2023-02-15T20:53:03.417Z,52.6
2023-02-15T20:58:03.384Z,52.7
2023-02-15T21:03:03.384Z,52.7
2023-02-15T21:13:03.405Z,52.7
2023-02-15T21:23:03.393Z,52.6
2023-02-15T21:28:03.462Z,52.7
2023-02-15T21:43:03.439Z,52.2
2023-02-15T21:48:03.421Z,52.3
2023-02-15T21:53:03.428Z,52.1
2023-02-15T22:03:03.547Z,52.1
2023-02-15T22:08:03.709Z,52.1
2023-02-15T22:13:03.425Z,52.4
2023-02-15T22:18:03.447Z,52.2
2023-02-15T22:28:03.446Z,52.1
2023-02-15T22:38:03.421Z,52.1
2023-02-15T22:43:03.604Z,52
2023-02-15T23:03:03.474Z,51.8
2023-02-15T23:08:03.430Z,51.8
2023-02-15T23:18:03.428Z,51.9
2023-02-15T23:28:03.460Z,51.8
2023-02-15T23:38:03.420Z,51.9
2023-02-15T23:43:03.450Z,51.8
2023-02-15T23:53:03.459Z,51.6
